createdAt,value
2022-12-20T00:02:03.998Z,0.30
2022-12-20T00:04:31.232Z,0.07
2022-12-20T00:06:58.432Z,0.27
2022-12-20T00:09:25.924Z,0.26
2022-12-20T00:11:52.926Z,0.15
2022-12-20T00:14:19.882Z,0.37
2022-12-20T00:16:46.895Z,0.16
2022-12-20T00:19:13.854Z,0.15
2022-12-20T00:21:40.744Z,0.07
2022-12-20T00:24:08.056Z,-0.02
2022-12-20T00:26:36.256Z,0.18
2022-12-20T00:29:04.261Z,0.12
2022-12-20T00:31:32.345Z,0.21
2022-12-20T00:34:01.872Z,0.12
2022-12-20T00:36:30.947Z,-0.05
2022-12-20T00:39:00.835Z,-0.03
2022-12-20T00:41:31.392Z,0.03
2022-12-20T00:43:58.407Z,-0.07
2022-12-20T00:46:26.038Z,-0.16
2022-12-20T00:48:54.676Z,-0.03
2022-12-20T00:51:27.697Z,0.05
2022-12-20T00:53:55.404Z,-0.03
2022-12-20T00:56:22.900Z,-0.05
2022-12-20T00:58:49.920Z,-0.06
2022-12-20T01:01:31.970Z,0.08
2022-12-20T01:04:04.121Z,-0.03
2022-12-20T01:06:31.955Z,0.02
2022-12-20T01:08:59.440Z,-0.12
2022-12-20T01:11:32.358Z,0.08
2022-12-20T01:14:03.800Z,0.06
2022-12-20T01:16:35.182Z,-0.07
2022-12-20T01:19:02.579Z,0.09
2022-12-20T01:21:30.052Z,0.08
2022-12-20T01:23:57.221Z,-0.01
2022-12-20T01:26:27.433Z,-0.01
2022-12-20T01:28:58.068Z,-0.07
2022-12-20T01:31:26.449Z,-0.13
2022-12-20T01:33:53.541Z,0.06
2022-12-20T01:36:25.478Z,-0.01
2022-12-20T01:38:59.853Z,-0.01
2022-12-20T01:41:29.443Z,-0.19
2022-12-20T01:43:58.142Z,0.04
2022-12-20T01:46:27.828Z,0.12
2022-12-20T01:49:11.119Z,0.00
2022-12-20T01:51:56.146Z,-0.03
2022-12-20T01:54:30.995Z,0.17
2022-12-20T01:57:02.282Z,-0.06
2022-12-20T01:59:29.918Z,0.10
2022-12-20T02:02:03.754Z,-0.03
2022-12-20T02:04:30.924Z,0.14
2022-12-20T02:06:58.419Z,0.21
2022-12-20T02:09:25.708Z,0.23
2022-12-20T02:12:11.117Z,-0.04
2022-12-20T02:14:44.358Z,-0.02
2022-12-20T02:17:34.328Z,0.07
2022-12-20T02:20:20.104Z,-0.03
2022-12-20T02:23:20.311Z,-0.03
2022-12-20T02:26:16.938Z,-0.01
2022-12-20T02:29:20.306Z,-0.03
2022-12-20T02:32:13.458Z,-0.07
2022-12-20T02:34:42.129Z,-0.06
2022-12-20T02:37:10.404Z,-0.04
2022-12-20T02:39:40.855Z,0.06
2022-12-20T02:42:11.399Z,0.05
2022-12-20T02:45:03.555Z,0.02
2022-12-20T02:47:58.963Z,0.10
2022-12-20T02:50:36.358Z,0.09
2022-12-20T02:53:04.762Z,0.24
2022-12-20T02:55:39.530Z,0.22
2022-12-20T02:58:16.098Z,0.14
2022-12-20T03:00:47.375Z,0.03
2022-12-20T03:03:23.747Z,0.06
2022-12-20T03:05:56.142Z,0.09
2022-12-20T03:08:24.410Z,0.05
2022-12-20T03:10:54.116Z,0.21
2022-12-20T03:13:22.617Z,0.29
2022-12-20T03:15:49.730Z,0.12
2022-12-20T03:18:16.654Z,0.23
2022-12-20T03:20:44.222Z,0.06
2022-12-20T03:23:11.245Z,-0.10
2022-12-20T03:25:38.405Z,-0.16
2022-12-20T03:28:05.738Z,-0.04
2022-12-20T03:30:32.810Z,-0.19
2022-12-20T03:32:59.817Z,-0.13
2022-12-20T03:35:26.929Z,-0.08
2022-12-20T03:37:53.790Z,-0.02
2022-12-20T03:40:20.753Z,0.04
2022-12-20T03:42:48.110Z,-0.15
2022-12-20T03:45:16.364Z,-0.33
2022-12-20T03:47:43.363Z,-0.08
2022-12-20T03:50:10.782Z,-0.13
2022-12-20T03:52:38.322Z,-0.03
2022-12-20T03:55:05.807Z,-0.03
2022-12-20T03:57:32.874Z,-0.16
2022-12-20T03:59:59.883Z,-0.19
2022-12-20T04:02:27.023Z,-0.15
2022-12-20T04:04:54.194Z,-0.36
2022-12-20T04:07:21.627Z,-0.36
2022-12-20T04:09:48.549Z,-0.39
2022-12-20T04:12:15.410Z,-0.19
2022-12-20T04:14:42.252Z,-0.12
2022-12-20T04:17:09.245Z,-0.18
2022-12-20T04:19:36.701Z,-0.31
2022-12-20T04:22:05.962Z,-0.37
2022-12-20T04:24:33.613Z,-0.36
2022-12-20T04:27:00.958Z,-0.30
2022-12-20T04:29:28.139Z,-0.29
2022-12-20T04:31:55.424Z,-0.22
2022-12-20T04:34:22.444Z,0.01
2022-12-20T04:36:49.645Z,0.11
2022-12-20T04:39:16.580Z,0.10
2022-12-20T04:41:43.601Z,-0.12
2022-12-20T04:44:10.497Z,0.07
2022-12-20T04:46:37.991Z,-0.11
2022-12-20T04:49:05.047Z,-0.06
2022-12-20T04:51:31.971Z,-0.15
2022-12-20T04:53:58.872Z,-0.12
2022-12-20T04:56:28.893Z,-0.16
2022-12-20T04:58:58.906Z,-0.21
2022-12-20T05:01:26.661Z,-0.21
2022-12-20T05:03:55.342Z,-0.10
2022-12-20T05:06:22.523Z,-0.15
2022-12-20T05:08:49.538Z,-0.21
2022-12-20T05:11:16.582Z,-0.16
2022-12-20T05:13:44.061Z,0.09
2022-12-20T05:16:11.091Z,0.18
2022-12-20T05:18:43.042Z,0.17
2022-12-20T05:21:32.171Z,-0.11
2022-12-20T05:24:17.999Z,-0.13
2022-12-20T05:26:45.175Z,-0.11
2022-12-20T05:29:12.167Z,-0.39
2022-12-20T05:31:39.176Z,-0.29
2022-12-20T05:34:06.094Z,-0.29
2022-12-20T05:36:33.043Z,-0.21
2022-12-20T05:39:04.401Z,-0.27
2022-12-20T05:41:36.675Z,-0.18
2022-12-20T05:44:04.449Z,-0.32
2022-12-20T05:46:31.469Z,-0.33
2022-12-20T05:48:58.403Z,-0.32
2022-12-20T05:51:25.745Z,-0.36
2022-12-20T05:53:52.550Z,-0.32
2022-12-20T05:56:19.428Z,-0.24
2022-12-20T05:58:46.487Z,-0.36
2022-12-20T06:01:13.408Z,-0.36
2022-12-20T06:03:41.219Z,-0.15
2022-12-20T06:06:13.847Z,0.02
2022-12-20T06:08:41.229Z,-0.25
2022-12-20T06:11:08.042Z,-0.19
2022-12-20T06:13:35.665Z,-0.16
2022-12-20T06:16:02.576Z,-0.01
2022-12-20T06:18:30.049Z,-0.02
2022-12-20T06:20:57.244Z,-0.15
2022-12-20T06:23:24.431Z,-0.11
2022-12-20T06:25:51.880Z,0.14
2022-12-20T06:28:22.378Z,0.34
2022-12-20T06:30:54.425Z,0.53
2022-12-20T06:33:21.989Z,1.68
2022-12-20T06:35:53.373Z,2.13
2022-12-20T06:38:20.326Z,2.63
2022-12-20T06:40:47.821Z,2.75
2022-12-20T06:43:14.997Z,3.21
2022-12-20T06:45:42.814Z,3.73
2022-12-20T06:48:11.187Z,3.95
2022-12-20T06:50:41.466Z,3.56
2022-12-20T06:53:08.537Z,4.85
2022-12-20T06:55:35.601Z,4.05
2022-12-20T06:58:04.299Z,4.99
2022-12-20T07:00:31.497Z,5.39
2022-12-20T07:02:58.882Z,6.43
2022-12-20T07:05:26.459Z,6.64
2022-12-20T07:07:53.339Z,5.46
2022-12-20T07:10:20.158Z,5.26
2022-12-20T07:12:48.421Z,6.72
2022-12-20T07:15:17.152Z,7.76
2022-12-20T07:17:44.419Z,6.22
2022-12-20T07:20:14.094Z,6.09
2022-12-20T07:22:41.962Z,5.51
2022-12-20T07:25:09.353Z,6.68
2022-12-20T07:27:36.592Z,8.00
2022-12-20T07:30:05.389Z,8.25
2022-12-20T07:32:32.977Z,5.59
2022-12-20T07:35:00.143Z,8.08
2022-12-20T07:37:29.531Z,7.35
2022-12-20T07:39:56.639Z,8.63
2022-12-20T07:42:25.441Z,7.57
2022-12-20T07:44:54.484Z,8.64
2022-12-20T07:47:21.476Z,9.58
2022-12-20T07:49:49.777Z,8.37
2022-12-20T07:52:20.113Z,7.09
2022-12-20T07:54:54.981Z,6.90
2022-12-20T07:57:31.502Z,8.34
2022-12-20T08:00:00.107Z,8.55
2022-12-20T08:02:50.005Z,9.38
2022-12-20T08:05:18.245Z,9.56
2022-12-20T08:07:47.288Z,9.37
2022-12-20T08:10:16.557Z,9.89
2022-12-20T08:12:45.614Z,10.45
2022-12-20T08:15:12.986Z,9.28
2022-12-20T08:17:39.934Z,6.03
2022-12-20T08:20:09.206Z,7.66
2022-12-20T08:22:36.336Z,7.81
2022-12-20T08:25:04.956Z,8.58
2022-12-20T08:27:31.947Z,6.23
2022-12-20T08:29:58.929Z,5.61
2022-12-20T08:32:26.244Z,5.73
2022-12-20T08:34:54.187Z,5.43
2022-12-20T08:37:21.211Z,5.38
2022-12-20T08:39:48.275Z,4.42
2022-12-20T08:42:15.702Z,4.43
2022-12-20T08:44:43.059Z,4.57
2022-12-20T08:47:10.897Z,4.38
2022-12-20T08:49:42.412Z,5.47
2022-12-20T08:52:12.792Z,5.77
2022-12-20T08:54:39.891Z,6.70
2022-12-20T08:57:06.837Z,5.42
2022-12-20T08:59:33.938Z,5.63
2022-12-20T09:02:01.079Z,4.89
2022-12-20T09:04:28.246Z,5.08
2022-12-20T09:06:55.371Z,5.15
2022-12-20T09:09:22.462Z,4.77
2022-12-20T09:11:49.289Z,5.95
2022-12-20T09:14:16.215Z,5.04
2022-12-20T09:16:43.282Z,4.38
2022-12-20T09:19:13.500Z,4.37
2022-12-20T09:21:40.815Z,3.99
2022-12-20T09:24:08.288Z,4.29
2022-12-20T09:26:35.970Z,4.02
2022-12-20T09:29:03.771Z,4.18
2022-12-20T09:31:30.958Z,4.87
2022-12-20T09:33:59.648Z,3.85
2022-12-20T09:36:28.310Z,4.88
2022-12-20T09:38:55.985Z,4.25
2022-12-20T09:41:35.069Z,4.77
2022-12-20T09:44:13.584Z,5.15
2022-12-20T09:46:42.413Z,5.38
2022-12-20T09:49:16.758Z,5.70
2022-12-20T09:52:08.197Z,5.12
2022-12-20T09:54:46.394Z,4.58
2022-12-20T09:57:34.996Z,4.49
2022-12-20T10:00:02.341Z,4.63
2022-12-20T10:05:42.744Z,4.80
2022-12-20T10:08:18.812Z,4.95
2022-12-20T10:10:48.663Z,4.53
2022-12-20T10:13:30.496Z,4.26
2022-12-20T10:16:27.405Z,4.46
2022-12-20T10:19:21.727Z,4.43
2022-12-20T10:22:03.283Z,4.59
2022-12-20T10:24:32.444Z,5.00
2022-12-20T10:27:12.810Z,4.76
2022-12-20T10:29:40.333Z,4.81
2022-12-20T10:32:14.641Z,4.77
2022-12-20T10:34:52.580Z,5.02
2022-12-20T10:37:22.429Z,5.25
2022-12-20T10:39:51.426Z,4.96
2022-12-20T10:42:38.608Z,5.57
2022-12-20T10:45:23.967Z,5.12
2022-12-20T10:47:52.243Z,5.14
2022-12-20T10:50:22.219Z,4.62
2022-12-20T10:53:10.654Z,4.95
2022-12-20T10:55:42.563Z,5.02
2022-12-20T10:58:35.862Z,4.98
2022-12-20T11:01:18.539Z,4.80
2022-12-20T11:04:00.004Z,4.76
2022-12-20T11:06:42.631Z,5.28
2022-12-20T11:09:33.588Z,5.49
2022-12-20T11:12:08.307Z,5.31
2022-12-20T11:14:39.761Z,4.88
2022-12-20T11:17:36.657Z,5.30
2022-12-20T11:20:28.984Z,5.24
2022-12-20T11:23:08.527Z,5.60
2022-12-20T11:26:13.564Z,4.94
2022-12-20T11:28:55.342Z,5.44
2022-12-20T11:31:50.113Z,5.57
2022-12-20T11:34:31.189Z,5.12
2022-12-20T11:37:16.827Z,5.20
2022-12-20T11:40:17.875Z,5.28
2022-12-20T11:42:54.305Z,5.55
2022-12-20T11:45:46.970Z,5.46
2022-12-20T11:48:16.699Z,5.49
2022-12-20T11:50:52.479Z,5.50
2022-12-20T11:53:37.600Z,5.09
2022-12-20T11:56:15.899Z,5.20
2022-12-20T11:58:52.338Z,5.08
2022-12-20T12:01:24.842Z,5.27
2022-12-20T12:04:10.643Z,4.60
2022-12-20T12:06:50.311Z,4.62
2022-12-20T12:09:25.864Z,4.64
2022-12-20T12:12:07.722Z,4.79
2022-12-20T12:14:55.583Z,4.91
2022-12-20T12:17:45.475Z,5.25
2022-12-20T12:20:24.972Z,5.11
2022-12-20T12:22:58.944Z,5.11
2022-12-20T12:25:26.346Z,4.83
2022-12-20T12:27:53.338Z,4.84
2022-12-20T12:30:20.393Z,4.62
2022-12-20T12:33:03.611Z,4.94
2022-12-20T12:35:52.365Z,5.21
2022-12-20T12:38:44.664Z,5.14
2022-12-20T12:41:30.369Z,5.16
2022-12-20T12:44:19.182Z,5.06
2022-12-20T12:46:52.648Z,5.23
2022-12-20T12:49:26.807Z,5.34
2022-12-20T12:51:57.796Z,5.54
2022-12-20T12:54:40.057Z,5.39
2022-12-20T12:57:16.614Z,5.31
2022-12-20T12:59:48.380Z,5.30
2022-12-20T13:02:16.016Z,5.20
2022-12-20T13:04:58.712Z,5.10
2022-12-20T13:07:35.487Z,5.07
2022-12-20T13:10:18.535Z,4.90
2022-12-20T13:12:51.799Z,4.79
2022-12-20T13:15:21.879Z,4.93
2022-12-20T13:17:51.544Z,4.88
2022-12-20T13:20:27.444Z,5.15
2022-12-20T13:23:17.599Z,4.90
2022-12-20T13:25:52.247Z,4.95
2022-12-20T13:28:22.940Z,4.83
2022-12-20T13:31:02.084Z,4.98
2022-12-20T13:33:45.960Z,4.81
2022-12-20T13:36:12.894Z,5.01
2022-12-20T13:38:45.955Z,4.89
2022-12-20T13:41:29.569Z,4.95
2022-12-20T13:44:16.737Z,4.55
2022-12-20T13:46:58.848Z,4.69
2022-12-20T13:49:39.287Z,4.46
2022-12-20T13:52:12.257Z,4.49
2022-12-20T13:54:47.608Z,4.45
2022-12-20T13:57:24.775Z,4.45
2022-12-20T14:00:01.779Z,4.52
2022-12-20T14:02:42.236Z,4.32
2022-12-20T14:05:23.765Z,4.41
2022-12-20T14:08:00.053Z,4.47
2022-12-20T14:10:29.202Z,4.26
2022-12-20T14:12:58.295Z,4.35
2022-12-20T14:15:28.741Z,4.16
2022-12-20T14:17:56.476Z,4.14
2022-12-20T14:20:29.558Z,4.15
2022-12-20T14:23:16.434Z,4.18
2022-12-20T14:26:04.050Z,4.05
2022-12-20T14:28:40.746Z,3.88
2022-12-20T14:31:22.973Z,3.80
2022-12-20T14:33:51.566Z,3.76
2022-12-20T14:36:20.949Z,3.73
2022-12-20T14:38:50.537Z,3.78
2022-12-20T14:41:30.711Z,3.62
2022-12-20T14:44:07.295Z,3.66
2022-12-20T14:46:36.153Z,3.69
2022-12-20T14:49:19.271Z,3.64
2022-12-20T14:51:47.388Z,3.55
2022-12-20T14:55:05.572Z,3.43
2022-12-20T14:57:29.516Z,3.46
2022-12-20T15:00:19.310Z,3.33
2022-12-20T15:02:59.813Z,3.23
2022-12-20T15:05:36.447Z,3.30
2022-12-20T15:08:33.401Z,3.26
2022-12-20T15:11:11.110Z,3.28
2022-12-20T15:13:50.408Z,3.18
2022-12-20T15:16:31.297Z,3.13
2022-12-20T15:19:02.215Z,3.11
2022-12-20T15:21:37.758Z,3.23
2022-12-20T15:24:10.732Z,3.03
2022-12-20T15:26:39.210Z,3.05
2022-12-20T15:29:07.189Z,2.92
2022-12-20T15:31:36.815Z,2.91
2022-12-20T15:34:31.203Z,2.87
2022-12-20T15:37:00.508Z,2.93
2022-12-20T15:39:27.930Z,3.02
2022-12-20T15:41:55.422Z,2.98
2022-12-20T15:44:24.758Z,2.94
2022-12-20T15:46:52.935Z,2.94
2022-12-20T15:49:25.562Z,2.96
2022-12-20T15:51:54.160Z,2.83
2022-12-20T15:54:27.859Z,2.95
2022-12-20T15:56:56.426Z,2.84
2022-12-20T16:02:20.545Z,2.90
2022-12-20T16:04:47.778Z,2.83
2022-12-20T16:07:15.079Z,2.80
2022-12-20T16:09:42.688Z,2.83
2022-12-20T16:12:19.430Z,2.86
2022-12-20T16:14:46.441Z,2.90
2022-12-20T16:17:16.920Z,2.93
2022-12-20T16:19:44.689Z,2.87
2022-12-20T16:22:22.431Z,2.94
2022-12-20T16:24:50.215Z,2.90
2022-12-20T16:27:17.355Z,2.97
2022-12-20T16:29:45.777Z,2.87
2022-12-20T16:32:17.640Z,2.92
2022-12-20T16:34:45.591Z,2.84
2022-12-20T16:37:13.633Z,2.79
2022-12-20T16:39:41.914Z,2.91
2022-12-20T16:42:23.417Z,2.91
2022-12-20T16:44:54.270Z,2.87
2022-12-20T16:47:21.940Z,2.92
2022-12-20T16:49:52.861Z,2.90
2022-12-20T16:52:22.441Z,2.86
2022-12-20T16:54:50.933Z,2.92
2022-12-20T16:57:17.921Z,2.74
2022-12-20T16:59:44.989Z,2.80
2022-12-20T17:02:22.605Z,2.62
2022-12-20T17:04:49.797Z,2.75
2022-12-20T17:07:17.000Z,2.62
2022-12-20T17:09:43.866Z,2.62
2022-12-20T17:12:19.665Z,2.73
2022-12-20T17:14:50.018Z,2.77
2022-12-20T17:17:17.811Z,2.73
2022-12-20T17:19:45.565Z,2.66
2022-12-20T17:24:58.148Z,2.69
2022-12-20T17:27:25.394Z,2.64
2022-12-20T17:29:52.602Z,2.74
2022-12-20T17:32:22.672Z,2.70
2022-12-20T17:34:50.019Z,2.49
2022-12-20T17:37:18.401Z,2.51
2022-12-20T17:39:45.590Z,2.64
2022-12-20T17:42:17.230Z,2.60
2022-12-20T17:44:46.533Z,2.65
2022-12-20T17:47:13.623Z,2.39
2022-12-20T17:49:40.759Z,2.50
2022-12-20T17:52:15.986Z,2.51
2022-12-20T17:54:43.199Z,2.34
2022-12-20T17:57:16.893Z,2.33
2022-12-20T17:59:44.631Z,2.04
2022-12-20T18:02:32.082Z,2.16
2022-12-20T18:04:58.997Z,2.04
2022-12-20T18:07:25.988Z,2.05
2022-12-20T18:09:53.007Z,2.08
2022-12-20T18:12:19.980Z,2.35
2022-12-20T18:14:49.129Z,2.19
2022-12-20T18:17:16.826Z,2.37
2022-12-20T18:19:44.136Z,2.23
2022-12-20T18:22:11.073Z,2.29
2022-12-20T18:24:37.874Z,2.22
2022-12-20T18:27:23.870Z,2.24
2022-12-20T18:29:55.715Z,2.34
2022-12-20T18:32:22.924Z,2.26
2022-12-20T18:34:49.747Z,2.30
2022-12-20T18:37:16.597Z,2.06
2022-12-20T18:39:44.001Z,2.27
2022-12-20T18:42:11.140Z,2.23
2022-12-20T18:44:37.998Z,2.36
2022-12-20T18:47:05.254Z,2.29
2022-12-20T18:49:32.324Z,2.44
2022-12-20T18:52:00.355Z,2.51
2022-12-20T18:54:27.470Z,2.41
2022-12-20T18:56:54.525Z,2.53
2022-12-20T18:59:21.566Z,2.46
2022-12-20T19:01:49.112Z,2.54
2022-12-20T19:04:24.794Z,2.63
2022-12-20T19:06:52.382Z,2.70
2022-12-20T19:09:19.370Z,2.65
2022-12-20T19:11:49.217Z,2.76
2022-12-20T19:14:20.143Z,2.72
2022-12-20T19:16:50.020Z,2.63
2022-12-20T19:19:17.043Z,2.53
2022-12-20T19:21:45.218Z,2.19
2022-12-20T19:24:12.692Z,2.18
2022-12-20T19:26:40.113Z,1.97
2022-12-20T19:29:07.839Z,2.02
2022-12-20T19:31:37.484Z,1.98
2022-12-20T19:34:11.716Z,2.02
2022-12-20T19:36:44.459Z,1.95
2022-12-20T19:39:20.792Z,1.89
2022-12-20T19:42:14.027Z,1.95
2022-12-20T19:44:35.838Z,1.98
2022-12-20T19:47:05.387Z,1.90
2022-12-20T19:49:32.665Z,1.86
2022-12-20T19:51:59.736Z,1.81
2022-12-20T19:54:26.714Z,1.70
2022-12-20T19:56:53.634Z,1.63
2022-12-20T19:59:21.454Z,1.64
2022-12-20T20:01:48.456Z,1.58
2022-12-20T20:04:15.743Z,1.51
2022-12-20T20:06:42.918Z,1.49
2022-12-20T20:09:10.031Z,1.51
2022-12-20T20:11:36.909Z,1.46
2022-12-20T20:14:04.503Z,1.38
2022-12-20T20:16:31.795Z,1.40
2022-12-20T20:18:58.767Z,1.31
2022-12-20T20:21:25.693Z,1.41
2022-12-20T20:23:53.999Z,1.30
2022-12-20T20:26:25.348Z,1.28
2022-12-20T20:28:53.622Z,1.19
2022-12-20T20:31:22.045Z,1.17
2022-12-20T20:33:49.650Z,1.21
2022-12-20T20:36:21.935Z,1.17
2022-12-20T20:38:50.210Z,1.07
2022-12-20T20:41:17.786Z,1.07
2022-12-20T20:43:44.980Z,1.19
2022-12-20T20:46:14.437Z,1.24
2022-12-20T20:48:41.857Z,1.19
2022-12-20T20:51:09.558Z,1.25
2022-12-20T20:53:36.754Z,1.20
2022-12-20T20:56:05.304Z,1.21
2022-12-20T20:58:33.320Z,1.38
2022-12-20T21:01:02.362Z,1.27
2022-12-20T21:03:31.624Z,1.24
2022-12-20T21:08:45.916Z,1.35
2022-12-20T21:11:13.559Z,1.37
2022-12-20T21:13:40.701Z,1.46
2022-12-20T21:16:13.561Z,1.39
2022-12-20T21:18:40.762Z,1.47
2022-12-20T21:21:12.917Z,1.38
2022-12-20T21:23:43.770Z,1.35
2022-12-20T21:26:10.943Z,1.45
2022-12-20T21:28:37.852Z,1.47
2022-12-20T21:31:07.007Z,1.62
2022-12-20T21:33:34.010Z,1.64
2022-12-20T21:36:03.143Z,1.61
2022-12-20T21:38:30.252Z,1.66
2022-12-20T21:41:05.547Z,1.70
2022-12-20T21:43:32.673Z,1.61
2022-12-20T21:46:00.154Z,1.66
2022-12-20T21:48:27.823Z,1.51
2022-12-20T21:51:10.448Z,1.50
2022-12-20T21:53:49.177Z,1.55
2022-12-20T21:56:16.975Z,1.52
2022-12-20T21:58:45.355Z,1.39
2022-12-20T22:01:16.419Z,1.35
2022-12-20T22:03:44.823Z,1.39
2022-12-20T22:06:12.891Z,1.25
2022-12-20T22:08:39.992Z,1.12
2022-12-20T22:11:12.107Z,1.05
2022-12-20T22:13:41.770Z,1.13
2022-12-20T22:16:16.285Z,1.15
2022-12-20T22:18:44.885Z,1.19
2022-12-20T22:21:14.236Z,1.16
2022-12-20T22:23:42.214Z,1.17
2022-12-20T22:26:14.110Z,1.25
2022-12-20T22:28:49.992Z,1.12
2022-12-20T22:33:34.792Z,1.14
2022-12-20T22:36:02.874Z,1.12
2022-12-20T22:38:29.946Z,1.11
2022-12-20T22:41:13.875Z,1.03
2022-12-20T22:43:41.906Z,1.11
2022-12-20T22:46:12.428Z,1.16
2022-12-20T22:48:40.747Z,1.16
2022-12-20T22:51:19.058Z,1.22
2022-12-20T22:53:47.788Z,1.26
2022-12-20T22:56:16.569Z,1.25
2022-12-20T22:58:43.616Z,1.18
2022-12-20T23:01:14.305Z,1.22
2022-12-20T23:03:41.715Z,1.18
2022-12-20T23:06:12.438Z,1.26
2022-12-20T23:08:39.951Z,1.22
2022-12-20T23:11:51.670Z,1.25
2022-12-20T23:14:39.812Z,1.27
2022-12-20T23:17:08.806Z,1.24
2022-12-20T23:19:54.754Z,1.19
2022-12-20T23:22:38.904Z,1.34
2022-12-20T23:25:10.750Z,1.35
2022-12-20T23:27:39.784Z,1.17
2022-12-20T23:30:08.995Z,1.25
2022-12-20T23:32:36.543Z,1.24
2022-12-20T23:35:10.077Z,1.45
2022-12-20T23:37:39.457Z,1.48
2022-12-20T23:40:07.767Z,1.53
2022-12-20T23:42:35.166Z,1.53
2022-12-20T23:45:02.232Z,1.40
2022-12-20T23:47:29.204Z,1.49
2022-12-20T23:49:56.291Z,1.51
2022-12-20T23:52:23.358Z,1.55
2022-12-20T23:54:50.604Z,1.48
2022-12-20T23:57:17.928Z,1.46
2022-12-20T23:59:45.048Z,1.54
